Time;durP1;ratioP1;P1;durP2;ratioP2;P2;SDS_P1;SDS_P2;PMS_P1;PMS_P2;Temp;Humidity;BMP_temperature;BMP_pressure;BME280_temperature;BME280_humidity;BME280_pressure;Samples;Min_cycle;Max_cycle;Signal;HPM_P1;HPM_P2
2021/06/07 00:02:00;;;;;;;0.40;0.40;;;14.30;72.50;;;;;;6216928;23;20386;-77
2021/06/07 00:04:28;;;;;;;0.45;0.45;;;14.30;72.50;;;;;;6217831;23;20015;-77
2021/06/07 00:06:56;;;;;;;0.40;0.40;;;14.20;72.60;;;;;;6217585;23;20028;-77
2021/06/07 00:09:22;;;;;;;0.38;0.38;;;14.20;72.70;;;;;;6242453;23;20011;-77
2021/06/07 00:11:51;;;;;;;0.30;0.30;;;14.20;72.80;;;;;;6243067;23;20043;-77
2021/06/07 00:14:18;;;;;;;0.30;0.30;;;14.10;72.80;;;;;;6243833;23;20063;-77
2021/06/07 00:16:44;;;;;;;0.30;0.30;;;14.10;72.90;;;;;;6242306;22;20095;-77
2021/06/07 00:19:14;;;;;;;0.30;0.30;;;14.10;73.00;;;;;;6243878;23;20028;-77
2021/06/07 00:21:40;;;;;;;0.40;0.30;;;14.10;73.20;;;;;;6241845;23;20004;-77
2021/06/07 00:24:07;;;;;;;0.40;0.40;;;14.00;73.20;;;;;;6243720;23;20498;-77
2021/06/07 00:26:33;;;;;;;0.70;0.50;;;13.90;73.20;;;;;;6217285;23;20000;-77
2021/06/07 00:28:59;;;;;;;0.40;0.40;;;13.90;73.30;;;;;;6242234;23;20336;-77
2021/06/07 00:31:25;;;;;;;0.30;0.30;;;13.90;73.40;;;;;;6242184;22;20031;-77
2021/06/07 00:33:51;;;;;;;0.60;0.40;;;13.90;73.40;;;;;;6242461;23;20000;-77
2021/06/07 00:36:21;;;;;;;0.60;0.55;;;13.90;73.50;;;;;;6244667;23;20126;-77
2021/06/07 00:38:49;;;;;;;0.45;0.40;;;13.80;73.60;;;;;;6244589;23;20008;-77
2021/06/07 00:41:16;;;;;;;0.30;0.30;;;13.80;73.70;;;;;;6242279;23;20004;-77
2021/06/07 00:43:41;;;;;;;0.35;0.35;;;13.80;73.70;;;;;;6242332;23;20022;-77
2021/06/07 00:46:07;;;;;;;0.30;0.30;;;13.80;73.70;;;;;;6243763;23;20095;-77
2021/06/07 00:48:34;;;;;;;0.30;0.30;;;13.70;73.60;;;;;;6216906;23;20008;-76
2021/06/07 00:51:04;;;;;;;0.20;0.20;;;13.70;73.70;;;;;;6244081;23;20015;-77
2021/06/07 00:53:30;;;;;;;0.30;0.30;;;13.70;73.80;;;;;;6242017;23;20420;-77
2021/06/07 00:56:00;;;;;;;0.30;0.30;;;13.70;73.70;;;;;;6244007;23;20011;-77
2021/06/07 00:58:31;;;;;;;0.57;0.38;;;13.70;73.70;;;;;;6244079;23;20006;-77
2021/06/07 01:00:58;;;;;;;1.05;0.30;;;13.70;73.70;;;;;;6217035;23;20371;-77
2021/06/07 01:03:25;;;;;;;0.45;0.45;;;13.60;73.70;;;;;;6242325;23;20058;-77
2021/06/07 01:05:52;;;;;;;0.28;0.28;;;13.50;73.70;;;;;;6242349;23;20001;-77
2021/06/07 01:08:18;;;;;;;0.30;0.30;;;13.60;73.80;;;;;;6244187;23;20008;-77
2021/06/07 01:10:45;;;;;;;0.40;0.40;;;13.60;73.80;;;;;;6241865;23;20009;-77
2021/06/07 01:13:13;;;;;;;0.20;0.20;;;13.50;73.70;;;;;;6240296;23;20001;-77
2021/06/07 01:15:40;;;;;;;0.47;0.30;;;13.50;73.70;;;;;;6242222;22;20027;-77
2021/06/07 01:18:06;;;;;;;0.35;0.35;;;13.50;73.90;;;;;;6243548;23;20000;-77
2021/06/07 01:20:32;;;;;;;0.40;0.32;;;13.50;73.90;;;;;;6243834;23;20018;-77
2021/06/07 01:22:58;;;;;;;0.20;0.20;;;13.40;73.90;;;;;;6216534;23;20000;-77
2021/06/07 01:25:27;;;;;;;0.30;0.30;;;13.40;74.00;;;;;;6243469;23;20058;-77
2021/06/07 01:27:54;;;;;;;0.45;0.30;;;13.40;74.00;;;;;;6216717;23;20428;-77
2021/06/07 01:30:23;;;;;;;0.43;0.40;;;13.40;74.00;;;;;;6244516;23;20012;-77
2021/06/07 01:32:49;;;;;;;0.40;0.40;;;13.30;74.00;;;;;;6244751;23;20328;-77
2021/06/07 01:35:16;;;;;;;0.38;0.38;;;13.30;74.00;;;;;;6243182;23;20031;-77
2021/06/07 01:37:43;;;;;;;0.45;0.30;;;13.30;74.10;;;;;;6241227;23;20004;-77
2021/06/07 01:40:14;;;;;;;0.10;0.10;;;13.20;74.10;;;;;;6245150;23;20011;-76
2021/06/07 01:42:40;;;;;;;0.20;0.20;;;13.20;74.20;;;;;;6243919;23;20118;-77
2021/06/07 01:45:08;;;;;;;0.57;0.20;;;13.20;74.30;;;;;;6242896;23;20015;-77
2021/06/07 01:47:34;;;;;;;0.30;0.30;;;13.20;74.30;;;;;;6243015;23;20024;-77
2021/06/07 01:50:00;;;;;;;0.73;0.32;;;13.20;74.40;;;;;;6244539;23;20058;-77
2021/06/07 01:52:26;;;;;;;0.20;0.20;;;13.10;74.30;;;;;;6243286;23;20004;-77
2021/06/07 01:54:52;;;;;;;0.32;0.20;;;13.10;74.30;;;;;;6243334;23;20016;-77
2021/06/07 01:57:19;;;;;;;0.30;0.30;;;13.10;74.30;;;;;;6242016;23;20001;-77
2021/06/07 01:59:45;;;;;;;0.28;0.28;;;13.10;74.30;;;;;;6243252;23;20000;-77
2021/06/07 02:02:10;;;;;;;0.30;0.30;;;13.10;74.30;;;;;;6242872;23;20455;-77
2021/06/07 02:04:36;;;;;;;0.30;0.30;;;13.10;74.30;;;;;;6244531;23;20001;-77
2021/06/07 02:07:02;;;;;;;1.48;0.40;;;13.10;74.30;;;;;;6242858;23;20079;-77
2021/06/07 02:09:29;;;;;;;0.30;0.30;;;13.00;74.40;;;;;;6217754;23;20373;-77
2021/06/07 02:11:55;;;;;;;0.20;0.20;;;13.00;74.20;;;;;;6244565;23;20016;-76
2021/06/07 02:14:21;;;;;;;0.35;0.35;;;13.00;74.20;;;;;;6243538;23;20015;-76
2021/06/07 02:16:46;;;;;;;0.20;0.20;;;13.00;74.20;;;;;;6242967;22;20004;-76
2021/06/07 02:19:12;;;;;;;0.30;0.30;;;12.90;74.20;;;;;;6242962;23;20028;-75
2021/06/07 02:21:39;;;;;;;0.20;0.20;;;12.90;74.20;;;;;;6244647;23;20119;-75
2021/06/07 02:24:07;;;;;;;0.30;0.30;;;12.90;74.20;;;;;;6243736;23;20004;-75
2021/06/07 02:26:34;;;;;;;0.20;0.20;;;12.90;74.30;;;;;;6241586;23;20009;-75
2021/06/07 02:29:05;;;;;;;0.20;0.20;;;12.90;74.20;;;;;;6243737;23;20016;-76
2021/06/07 02:31:31;;;;;;;0.20;0.20;;;12.90;74.20;;;;;;6244697;23;20040;-75
2021/06/07 02:33:58;;;;;;;0.22;0.22;;;12.90;74.20;;;;;;6243591;23;20016;-76
2021/06/07 02:36:28;;;;;;;0.22;0.22;;;12.80;74.20;;;;;;6244802;23;20016;-76
2021/06/07 02:38:55;;;;;;;0.20;0.20;;;12.80;74.20;;;;;;6242061;23;20016;-75
2021/06/07 02:41:21;;;;;;;0.20;0.20;;;12.90;74.20;;;;;;6244463;23;20087;-75
2021/06/07 02:43:48;;;;;;;0.50;0.30;;;12.80;74.10;;;;;;6217724;23;20007;-76
2021/06/07 02:46:14;;;;;;;0.28;0.28;;;12.70;74.00;;;;;;6217533;23;20058;-75
2021/06/07 02:48:40;;;;;;;0.20;0.20;;;12.80;74.00;;;;;;6242836;23;20000;-75
2021/06/07 02:51:06;;;;;;;0.32;0.30;;;12.80;74.00;;;;;;6242891;22;20012;-75
2021/06/07 02:53:32;;;;;;;0.30;0.30;;;12.80;73.90;;;;;;6242815;23;19996;-75
2021/06/07 02:55:58;;;;;;;0.20;0.20;;;12.80;73.90;;;;;;6242940;23;19996;-76
2021/06/07 02:58:24;;;;;;;0.20;0.20;;;12.80;73.90;;;;;;6242799;23;20024;-76
2021/06/07 03:00:54;;;;;;;0.32;0.30;;;12.80;74.00;;;;;;6241224;23;20004;-76
2021/06/07 03:03:21;;;;;;;0.20;0.20;;;12.80;74.00;;;;;;6218536;23;20007;-75
2021/06/07 03:05:48;;;;;;;0.10;0.10;;;12.80;74.00;;;;;;6243795;23;20035;-78
2021/06/07 03:08:16;;;;;;;0.20;0.20;;;12.80;74.00;;;;;;6244728;23;20004;-75
2021/06/07 03:10:45;;;;;;;0.20;0.20;;;12.80;74.60;;;;;;6242510;23;20016;-75
2021/06/07 03:13:11;;;;;;;0.20;0.20;;;12.80;74.00;;;;;;6243409;23;20000;-75
2021/06/07 03:15:37;;;;;;;0.93;0.30;;;12.80;74.00;;;;;;6243154;23;20000;-75
2021/06/07 03:18:03;;;;;;;0.35;0.35;;;12.70;74.10;;;;;;6244349;23;20373;-75
2021/06/07 03:20:31;;;;;;;0.30;0.30;;;12.70;74.10;;;;;;6242724;23;20012;-75
2021/06/07 03:22:59;;;;;;;0.20;0.20;;;12.70;74.10;;;;;;6244116;23;20448;-75
2021/06/07 03:25:26;;;;;;;0.20;0.20;;;12.70;74.20;;;;;;6242232;23;20444;-76
2021/06/07 03:27:52;;;;;;;0.20;0.20;;;12.70;74.30;;;;;;6244929;23;20015;-75
2021/06/07 03:30:19;;;;;;;0.20;0.20;;;12.60;74.20;;;;;;6243149;23;20015;-75
2021/06/07 03:32:45;;;;;;;0.25;0.25;;;12.70;74.30;;;;;;6244658;23;20004;-75
2021/06/07 03:35:14;;;;;;;0.20;0.20;;;12.70;74.30;;;;;;6244116;23;20050;-75
2021/06/07 03:37:40;;;;;;;0.28;0.28;;;12.70;74.30;;;;;;6243154;23;20080;-75
2021/06/07 03:40:10;;;;;;;0.30;0.30;;;12.60;74.10;;;;;;6242500;23;20004;-75
2021/06/07 03:42:36;;;;;;;0.20;0.20;;;12.70;74.20;;;;;;6244733;23;20000;-75
2021/06/07 03:45:04;;;;;;;0.20;0.20;;;12.60;74.20;;;;;;6244022;23;20004;-76
2021/06/07 03:47:29;;;;;;;0.20;0.20;;;12.70;74.20;;;;;;6244389;23;20451;-75
2021/06/07 03:49:55;;;;;;;0.28;0.28;;;12.70;74.30;;;;;;6217130;23;20031;-75
2021/06/07 03:52:21;;;;;;;0.30;0.30;;;12.70;74.30;;;;;;6216467;23;20004;-75
2021/06/07 03:54:46;;;;;;;0.13;0.13;;;12.60;74.30;;;;;;6244029;23;20000;-75
2021/06/07 03:57:12;;;;;;;0.20;0.20;;;12.70;74.40;;;;;;6240962;23;20028;-75
2021/06/07 03:59:38;;;;;;;0.32;0.30;;;12.70;74.40;;;;;;6244371;23;20325;-75
2021/06/07 04:02:08;;;;;;;0.20;0.20;;;12.70;74.30;;;;;;6242612;22;20004;-75
2021/06/07 04:04:34;;;;;;;0.22;0.22;;;12.70;74.40;;;;;;6244738;23;20028;-75
2021/06/07 04:06:59;;;;;;;0.10;0.10;;;12.70;74.40;;;;;;6241792;23;20005;-75
2021/06/07 04:09:26;;;;;;;0.20;0.20;;;12.70;74.40;;;;;;6242742;23;20000;-75
2021/06/07 04:11:52;;;;;;;0.20;0.20;;;12.70;74.50;;;;;;6244803;23;20087;-75
2021/06/07 04:14:18;;;;;;;0.40;0.35;;;12.60;74.50;;;;;;6242621;23;20040;-75
2021/06/07 04:16:44;;;;;;;0.20;0.20;;;12.70;74.60;;;;;;6244164;23;20454;-75
2021/06/07 04:19:09;;;;;;;0.20;0.20;;;12.60;74.60;;;;;;6217346;23;20004;-76
2021/06/07 04:21:39;;;;;;;0.32;0.30;;;12.70;74.70;;;;;;6242596;23;20007;-75
2021/06/07 04:24:06;;;;;;;0.20;0.20;;;12.60;74.60;;;;;;6244109;23;20008;-76
2021/06/07 04:26:32;;;;;;;0.30;0.30;;;12.70;74.80;;;;;;6242618;23;20432;-76
2021/06/07 04:28:58;;;;;;;0.30;0.30;;;12.70;74.70;;;;;;6240681;23;20437;-75
2021/06/07 04:31:25;;;;;;;0.30;0.30;;;12.70;74.70;;;;;;6242403;23;20043;-75
2021/06/07 04:33:51;;;;;;;0.20;0.20;;;12.70;74.70;;;;;;6244678;23;20000;-75
2021/06/07 04:36:17;;;;;;;0.20;0.20;;;12.70;74.60;;;;;;6243858;23;20046;-75
2021/06/07 04:38:42;;;;;;;0.30;0.30;;;12.70;74.50;;;;;;6192183;23;19997;-76
2021/06/07 04:41:08;;;;;;;0.20;0.20;;;12.80;74.50;;;;;;6242621;23;20000;-76
2021/06/07 04:43:34;;;;;;;0.20;0.20;;;12.90;74.50;;;;;;6244609;23;20364;-76
2021/06/07 04:46:00;;;;;;;0.85;0.30;;;13.00;74.40;;;;;;6244139;23;20057;-76
2021/06/07 04:48:25;;;;;;;0.20;0.20;;;13.00;74.30;;;;;;6242636;23;20436;-75
2021/06/07 04:50:52;;;;;;;0.20;0.20;;;13.10;74.20;;;;;;6242720;23;20051;-76
2021/06/07 04:53:17;;;;;;;0.30;0.30;;;13.10;74.00;;;;;;6217284;23;20436;-76
2021/06/07 04:55:47;;;;;;;0.20;0.20;;;13.20;73.80;;;;;;6244144;23;20020;-77
2021/06/07 04:58:18;;;;;;;0.25;0.25;;;13.20;73.70;;;;;;6242301;23;20050;-76
2021/06/07 05:00:47;;;;;;;0.20;0.20;;;13.30;73.50;;;;;;6217158;23;20051;-76
2021/06/07 05:03:13;;;;;;;0.25;0.20;;;13.40;73.30;;;;;;6243100;23;20062;-76
2021/06/07 05:05:39;;;;;;;0.13;0.13;;;13.50;73.20;;;;;;6243273;23;20012;-76
2021/06/07 05:08:06;;;;;;;0.20;0.20;;;13.60;73.00;;;;;;6241951;23;20019;-78
2021/06/07 05:10:33;;;;;;;0.28;0.28;;;13.60;72.80;;;;;;6218011;23;20151;-77
2021/06/07 05:12:59;;;;;;;0.20;0.20;;;13.80;72.70;;;;;;6167813;23;20008;-77
2021/06/07 05:15:25;;;;;;;0.20;0.20;;;13.80;72.40;;;;;;6219093;23;20004;-78
2021/06/07 05:17:51;;;;;;;0.20;0.20;;;13.90;72.30;;;;;;6192970;23;20000;-78
2021/06/07 05:20:20;;;;;;;0.10;0.10;;;14.00;72.20;;;;;;6243231;23;20078;-78
2021/06/07 05:22:46;;;;;;;0.20;0.20;;;14.10;72.00;;;;;;6217529;23;20352;-77
2021/06/07 05:25:13;;;;;;;0.10;0.10;;;14.20;71.80;;;;;;6244723;23;20000;-77
2021/06/07 05:27:39;;;;;;;1.35;0.20;;;14.20;71.60;;;;;;6243517;23;20011;-76
2021/06/07 05:30:06;;;;;;;0.20;0.20;;;14.40;71.60;;;;;;6244877;23;20332;-76
2021/06/07 05:32:31;;;;;;;0.20;0.20;;;14.50;71.40;;;;;;6245254;23;20420;-76
2021/06/07 05:34:58;;;;;;;0.20;0.20;;;14.60;71.20;;;;;;6243003;23;20004;-76
2021/06/07 05:37:24;;;;;;;0.13;0.13;;;14.60;71.00;;;;;;6243121;23;20005;-76
2021/06/07 05:39:50;;;;;;;0.20;0.20;;;14.80;70.90;;;;;;6244923;23;20022;-76
2021/06/07 05:42:16;;;;;;;0.22;0.22;;;14.80;70.80;;;;;;6242695;23;20004;-76
2021/06/07 05:44:43;;;;;;;0.30;0.30;;;14.90;70.70;;;;;;6243247;23;20026;-75
2021/06/07 05:47:08;;;;;;;0.20;0.20;;;15.00;70.60;;;;;;6245059;23;19996;-75
2021/06/07 05:49:38;;;;;;;0.10;0.10;;;15.10;70.50;;;;;;6242849;23;20368;-76
2021/06/07 05:52:07;;;;;;;0.20;0.20;;;15.10;70.50;;;;;;6243229;23;20498;-75
2021/06/07 05:54:33;;;;;;;0.32;0.15;;;15.10;70.40;;;;;;6217751;23;20008;-76
2021/06/07 05:56:59;;;;;;;0.20;0.20;;;15.20;70.40;;;;;;6244851;23;20004;-76
2021/06/07 05:59:25;;;;;;;0.20;0.20;;;15.30;70.40;;;;;;6241214;23;20035;-76
2021/06/07 06:01:50;;;;;;;0.47;0.22;;;15.40;70.30;;;;;;6243150;23;20008;-75
2021/06/07 06:04:16;;;;;;;0.25;0.20;;;15.40;70.20;;;;;;6241528;23;20019;-76
2021/06/07 06:06:42;;;;;;;0.73;0.20;;;15.50;70.20;;;;;;6245032;23;20028;-76
2021/06/07 06:09:08;;;;;;;0.20;0.20;;;15.60;70.00;;;;;;6190583;23;20005;-76
2021/06/07 06:11:34;;;;;;;0.10;0.10;;;15.70;70.00;;;;;;6242652;22;20048;-76
2021/06/07 06:14:01;;;;;;;0.10;0.10;;;15.70;69.80;;;;;;6244896;23;20008;-76
2021/06/07 06:16:27;;;;;;;0.20;0.20;;;15.80;69.70;;;;;;6244513;23;19996;-76
2021/06/07 06:18:52;;;;;;;0.20;0.20;;;15.90;69.60;;;;;;6240194;23;20003;-75
2021/06/07 06:21:18;;;;;;;0.20;0.20;;;16.00;69.40;;;;;;6217455;23;20087;-77
2021/06/07 06:23:44;;;;;;;0.20;0.20;;;16.10;69.20;;;;;;6217498;23;20424;-77
2021/06/07 06:26:10;;;;;;;0.35;0.22;;;16.20;69.00;;;;;;6244294;23;20039;-77
2021/06/07 06:28:37;;;;;;;0.47;0.10;;;16.30;68.80;;;;;;6242852;23;20114;-78
2021/06/07 06:31:05;;;;;;;0.30;0.20;;;16.40;68.50;;;;;;6243332;23;20015;-77
2021/06/07 06:33:32;;;;;;;0.20;0.20;;;16.50;68.30;;;;;;6243274;23;20000;-77
2021/06/07 06:35:58;;;;;;;0.17;0.17;;;16.70;68.10;;;;;;6241178;23;19997;-78
2021/06/07 06:38:24;;;;;;;0.20;0.20;;;16.80;67.80;;;;;;6217750;23;20006;-77
2021/06/07 06:40:52;;;;;;;0.30;0.30;;;16.90;67.60;;;;;;6242683;23;20456;-77
2021/06/07 06:43:18;;;;;;;0.20;0.20;;;17.00;67.30;;;;;;6244838;23;20455;-76
2021/06/07 06:45:44;;;;;;;0.20;0.20;;;17.10;67.20;;;;;;6242775;23;20063;-76
2021/06/07 06:48:10;;;;;;;0.22;0.20;;;17.20;66.80;;;;;;6244754;23;20008;-77
2021/06/07 06:50:39;;;;;;;0.20;0.20;;;17.30;66.70;;;;;;6242661;23;20012;-76
2021/06/07 06:53:09;;;;;;;0.20;0.20;;;17.40;66.50;;;;;;6242974;22;20090;-76
2021/06/07 06:55:35;;;;;;;0.20;0.20;;;17.50;66.30;;;;;;6217020;23;20003;-76
2021/06/07 06:58:01;;;;;;;0.20;0.20;;;17.70;66.20;;;;;;6241577;23;20003;-76
2021/06/07 07:00:28;;;;;;;0.20;0.20;;;17.80;65.90;;;;;;6244265;23;20008;-75
2021/06/07 07:02:54;;;;;;;0.20;0.20;;;18.00;65.60;;;;;;6244344;23;20000;-76
2021/06/07 07:05:20;;;;;;;0.32;0.15;;;18.10;65.50;;;;;;6217490;23;20012;-76
2021/06/07 07:07:45;;;;;;;0.10;0.10;;;18.30;65.30;;;;;;6244887;23;20332;-76
2021/06/07 07:10:11;;;;;;;0.10;0.10;;;18.50;65.20;;;;;;6244404;23;20004;-77
2021/06/07 07:12:38;;;;;;;0.20;0.20;;;18.80;64.80;;;;;;6242577;23;20004;-77
2021/06/07 07:15:05;;;;;;;0.20;0.20;;;18.90;64.50;;;;;;6242959;23;19996;-76
2021/06/07 07:17:30;;;;;;;0.20;0.20;;;19.00;64.30;;;;;;6244770;23;20004;-76
2021/06/07 07:19:56;;;;;;;0.10;0.10;;;19.20;64.30;;;;;;6244738;23;20294;-77
2021/06/07 07:22:22;;;;;;;0.20;0.20;;;19.40;64.10;;;;;;6242845;23;19996;-77
2021/06/07 07:24:49;;;;;;;0.20;0.20;;;19.50;63.90;;;;;;6244999;22;20309;-76
2021/06/07 07:27:17;;;;;;;0.20;0.20;;;19.70;63.80;;;;;;6243907;23;20429;-75
2021/06/07 07:29:44;;;;;;;0.13;0.13;;;19.90;63.70;;;;;;6218080;23;20328;-75
2021/06/07 07:32:10;;;;;;;0.20;0.20;;;20.00;63.50;;;;;;6242732;23;20510;-77
2021/06/07 07:34:36;;;;;;;0.20;0.20;;;20.20;63.40;;;;;;6245063;23;19996;-73
2021/06/07 07:37:03;;;;;;;0.10;0.10;;;20.30;63.20;;;;;;6244689;23;20004;-77
2021/06/07 07:39:29;;;;;;;0.30;0.30;;;20.50;62.90;;;;;;6242684;23;20036;-74
2021/06/07 07:41:58;;;;;;;0.20;0.20;;;20.60;62.90;;;;;;6244281;23;20015;-74
2021/06/07 07:44:24;;;;;;;0.30;0.25;;;20.80;63.00;;;;;;6242867;23;20004;-73
2021/06/07 07:46:52;;;;;;;0.43;0.22;;;20.90;62.80;;;;;;6242786;23;20023;-74
2021/06/07 07:49:18;;;;;;;0.30;0.30;;;20.90;62.70;;;;;;6244670;23;20004;-74
2021/06/07 07:51:44;;;;;;;0.20;0.20;;;21.10;62.70;;;;;;6244787;23;20051;-73
2021/06/07 07:54:10;;;;;;;0.68;0.30;;;21.20;62.50;;;;;;6218342;23;19996;-73
2021/06/07 07:56:37;;;;;;;0.20;0.20;;;21.30;62.40;;;;;;6241313;22;20075;-76
2021/06/07 07:59:03;;;;;;;0.20;0.20;;;21.30;62.30;;;;;;6242509;23;20302;-78
2021/06/07 08:01:28;;;;;;;0.17;0.10;;;21.50;62.20;;;;;;6244321;23;20095;-74
2021/06/07 08:03:54;;;;;;;0.47;0.30;;;21.70;62.00;;;;;;6217238;23;20028;-73
2021/06/07 08:06:20;;;;;;;0.20;0.20;;;21.80;61.90;;;;;;6244144;23;20118;-73
2021/06/07 08:08:46;;;;;;;0.13;0.13;;;21.90;61.80;;;;;;6244058;23;20007;-74
2021/06/07 08:11:12;;;;;;;1.42;0.30;;;22.00;61.70;;;;;;6242183;23;20533;-76
2021/06/07 08:13:39;;;;;;;0.20;0.20;;;22.10;61.60;;;;;;6244281;23;20022;-74
2021/06/07 08:16:06;;;;;;;0.28;0.28;;;22.20;61.60;;;;;;6217186;23;20012;-75
2021/06/07 08:18:31;;;;;;;0.30;0.30;;;22.30;61.40;;;;;;6242603;23;20001;-74
2021/06/07 08:20:57;;;;;;;1.33;0.40;;;22.50;61.20;;;;;;6242625;23;20008;-74
2021/06/07 08:23:23;;;;;;;0.38;0.35;;;22.60;61.10;;;;;;6243895;23;20004;-75
2021/06/07 08:25:49;;;;;;;0.30;0.30;;;22.70;60.90;;;;;;6242467;23;20460;-75
2021/06/07 08:28:15;;;;;;;0.22;0.22;;;22.90;60.80;;;;;;6216910;23;20035;-74
2021/06/07 08:30:41;;;;;;;0.50;0.30;;;22.90;60.50;;;;;;6244136;23;20092;-75
2021/06/07 08:33:06;;;;;;;0.45;0.30;;;23.00;60.50;;;;;;6242966;23;20008;-79
2021/06/07 08:35:33;;;;;;;0.77;0.25;;;23.20;60.50;;;;;;6218258;23;20366;-78
2021/06/07 08:37:59;;;;;;;0.32;0.32;;;23.30;60.30;;;;;;6245035;23;20012;-75
2021/06/07 08:40:25;;;;;;;0.38;0.20;;;23.40;60.30;;;;;;6242200;23;20027;-74
2021/06/07 08:42:51;;;;;;;0.30;0.30;;;23.40;60.20;;;;;;6243848;23;20011;-74
2021/06/07 08:45:21;;;;;;;0.20;0.20;;;23.60;60.20;;;;;;6243312;23;20000;-74
2021/06/07 08:47:48;;;;;;;0.30;0.30;;;23.70;60.00;;;;;;6241659;23;20011;-73
2021/06/07 08:50:18;;;;;;;0.30;0.20;;;23.70;60.00;;;;;;6191660;23;20031;-75
2021/06/07 08:52:44;;;;;;;0.20;0.20;;;23.70;60.00;;;;;;6242229;23;20091;-74
2021/06/07 08:55:15;;;;;;;0.30;0.30;;;23.70;60.10;;;;;;6245965;23;20004;-74
2021/06/07 08:57:44;;;;;;;0.38;0.30;;;23.70;60.00;;;;;;6244548;23;20019;-75
2021/06/07 09:00:13;;;;;;;0.90;0.30;;;23.70;60.00;;;;;;6240740;23;20003;-75
2021/06/07 09:02:41;;;;;;;0.30;0.30;;;23.80;59.90;;;;;;6242228;23;20000;-74
2021/06/07 09:05:07;;;;;;;0.30;0.30;;;24.00;59.80;;;;;;6244275;23;20003;-73
2021/06/07 09:07:48;;;;;;;0.20;0.20;;;24.00;59.70;;;;;;6246252;23;20004;-73
2021/06/07 09:10:14;;;;;;;0.20;0.20;;;24.10;59.70;;;;;;6242646;23;20000;-75
2021/06/07 09:12:43;;;;;;;0.30;0.30;;;24.20;59.40;;;;;;6244111;23;20028;-74
2021/06/07 09:15:23;;;;;;;0.50;0.30;;;24.30;59.10;;;;;;6243603;23;20142;-72
2021/06/07 09:17:48;;;;;;;0.40;0.30;;;24.30;59.10;;;;;;6243830;23;20054;-73
2021/06/07 09:20:19;;;;;;;0.30;0.30;;;24.30;59.10;;;;;;6241998;23;20012;-74
2021/06/07 09:22:51;;;;;;;0.32;0.30;;;24.30;59.40;;;;;;6214038;23;20013;-74
2021/06/07 09:25:19;;;;;;;0.28;0.28;;;24.40;58.80;;;;;;6242144;23;20019;-73
2021/06/07 09:28:04;;;;;;;0.30;0.30;;;24.40;58.80;;;;;;6244239;23;20035;-74
2021/06/07 09:30:35;;;;;;;0.20;0.20;;;24.50;58.60;;;;;;6244066;23;20035;-74
2021/06/07 09:33:26;;;;;;;0.45;0.20;;;24.50;58.70;;;;;;6244035;23;20027;-73
2021/06/07 09:36:18;;;;;;;0.28;0.28;;;24.60;58.50;;;;;;6246244;23;20119;-74
2021/06/07 09:39:11;;;;;;;0.20;0.20;;;24.80;58.40;;;;;;6244161;23;20000;-74
2021/06/07 09:42:07;;;;;;;0.68;0.40;;;24.90;58.40;;;;;;6242872;23;20043;-75
2021/06/07 09:44:38;;;;;;;0.35;0.30;;;24.90;58.10;;;;;;6243806;23;20491;-74
2021/06/07 09:47:09;;;;;;;0.30;0.30;;;24.90;58.30;;;;;;6216435;23;20432;-74
2021/06/07 09:49:40;;;;;;;0.25;0.25;;;24.90;58.30;;;;;;6243877;23;20008;-75
2021/06/07 09:52:10;;;;;;;0.40;0.40;;;25.00;58.20;;;;;;6217878;23;20459;-74
2021/06/07 09:54:36;;;;;;;0.25;0.25;;;25.20;58.00;;;;;;6242985;22;20027;-74
2021/06/07 09:57:03;;;;;;;0.25;0.25;;;25.20;57.60;;;;;;6243405;23;20004;-75
2021/06/07 09:59:32;;;;;;;0.20;0.20;;;25.30;57.50;;;;;;6243278;23;20324;-74
2021/06/07 10:02:00;;;;;;;0.52;0.20;;;25.30;57.40;;;;;;6243621;22;20019;-75
2021/06/07 10:04:52;;;;;;;0.30;0.30;;;25.20;57.40;;;;;;6244546;23;20008;-76
2021/06/07 10:07:19;;;;;;;0.30;0.30;;;25.30;57.20;;;;;;6217399;23;20476;-75
2021/06/07 10:10:06;;;;;;;0.20;0.20;;;25.30;57.30;;;;;;6242574;22;20063;-73
2021/06/07 10:12:32;;;;;;;0.30;0.22;;;25.40;57.10;;;;;;6244512;23;20035;-74
2021/06/07 10:14:58;;;;;;;0.28;0.25;;;25.50;57.20;;;;;;6243298;23;20004;-73
2021/06/07 10:17:24;;;;;;;0.47;0.40;;;25.60;57.00;;;;;;6244422;23;20054;-75
2021/06/07 10:20:46;;;;;;;0.30;0.30;;;25.60;56.90;;;;;;6244960;23;20091;-74
2021/06/07 10:22:37;;;;;;;0.30;0.30;;;25.70;56.80;;;;;;6245227;23;20008;-73
2021/06/07 10:25:05;;;;;;;0.20;0.20;;;25.80;56.70;;;;;;6244653;23;19997;-74
2021/06/07 10:27:31;;;;;;;0.35;0.30;;;25.80;56.60;;;;;;6243286;23;20126;-73
2021/06/07 10:29:56;;;;;;;0.20;0.20;;;25.90;57.30;;;;;;6247857;23;20476;-74
2021/06/07 10:32:28;;;;;;;0.30;0.30;;;25.90;56.60;;;;;;6246104;22;20075;-75
2021/06/07 10:34:57;;;;;;;0.30;0.30;;;26.00;56.50;;;;;;6248222;23;20054;-75
2021/06/07 10:37:25;;;;;;;0.20;0.20;;;25.90;56.20;;;;;;6245390;23;20027;-75
2021/06/07 10:39:51;;;;;;;0.28;0.28;;;26.00;56.30;;;;;;6248001;23;20242;-76
2021/06/07 10:42:24;;;;;;;0.63;0.40;;;26.10;56.20;;;;;;6217677;23;20001;-75
2021/06/07 10:44:57;;;;;;;0.30;0.30;;;26.10;56.00;;;;;;6243281;23;20007;-74
2021/06/07 10:47:28;;;;;;;0.32;0.32;;;26.00;56.00;;;;;;6242941;23;20003;-74
2021/06/07 10:50:06;;;;;;;0.25;0.25;;;26.00;56.00;;;;;;6244559;23;20455;-75
2021/06/07 10:52:42;;;;;;;0.20;0.20;;;26.00;55.80;;;;;;6244084;23;20421;-74
2021/06/07 10:55:11;;;;;;;0.65;0.35;;;26.00;55.60;;;;;;6243018;23;20022;-75
2021/06/07 10:57:42;;;;;;;0.20;0.20;;;26.10;55.70;;;;;;6244310;23;20003;-74
2021/06/07 11:00:27;;;;;;;0.30;0.30;;;26.20;55.70;;;;;;6244300;22;20235;-74
2021/06/07 11:02:55;;;;;;;0.30;0.30;;;26.20;55.50;;;;;;6244249;23;20004;-74
2021/06/07 11:05:27;;;;;;;0.30;0.30;;;26.10;55.40;;;;;;6244433;23;20015;-74
2021/06/07 11:08:15;;;;;;;0.20;0.20;;;26.10;55.40;;;;;;6242951;23;20327;-74
2021/06/07 11:10:47;;;;;;;0.30;0.30;;;26.10;55.40;;;;;;6244248;23;20012;-74
2021/06/07 11:13:17;;;;;;;0.20;0.20;;;26.10;55.30;;;;;;6244915;23;20487;-74
2021/06/07 11:16:01;;;;;;;0.30;0.30;;;26.10;55.10;;;;;;6243535;23;20087;-73
2021/06/07 11:18:30;;;;;;;0.20;0.20;;;26.10;55.00;;;;;;6244939;23;20440;-74
2021/06/07 11:21:33;;;;;;;0.28;0.28;;;26.10;55.00;;;;;;6245428;23;20004;-74
2021/06/07 11:23:59;;;;;;;1.08;0.40;;;26.10;54.90;;;;;;6244632;23;20000;-74
2021/06/07 11:26:41;;;;;;;0.20;0.20;;;26.10;54.90;;;;;;6247071;23;20000;-75
2021/06/07 11:29:14;;;;;;;0.20;0.20;;;26.20;54.50;;;;;;6245516;23;20004;-73
2021/06/07 11:31:42;;;;;;;0.30;0.30;;;26.10;54.50;;;;;;6245484;23;20005;-73
2021/06/07 11:34:11;;;;;;;0.30;0.30;;;26.00;54.70;;;;;;6244541;23;20032;-74
2021/06/07 11:36:59;;;;;;;0.30;0.30;;;26.10;54.70;;;;;;6217528;23;20083;-76
2021/06/07 11:39:48;;;;;;;0.30;0.30;;;26.00;54.60;;;;;;6244785;23;20003;-75
2021/06/07 11:42:16;;;;;;;0.30;0.30;;;26.10;54.50;;;;;;6242975;23;20008;-77
2021/06/07 11:44:47;;;;;;;0.35;0.35;;;26.00;54.40;;;;;;6241059;23;20004;-76
2021/06/07 11:47:18;;;;;;;0.40;0.40;;;25.90;54.60;;;;;;6243567;23;20008;-76
2021/06/07 11:50:08;;;;;;;0.32;0.20;;;25.90;54.60;;;;;;6245899;23;20027;-75
2021/06/07 11:52:54;;;;;;;;;;;25.70;54.30;;;;;;6247106;23;20066;-76
2021/06/07 11:55:23;;;;;;;0.20;0.20;;;25.70;54.80;;;;;;6222427;23;20308;-74
2021/06/07 11:57:51;;;;;;;0.30;0.30;;;25.70;54.80;;;;;;6244930;23;20008;-76
2021/06/07 12:00:19;;;;;;;0.60;0.30;;;25.80;54.60;;;;;;6216658;23;20009;-76
2021/06/07 12:02:45;;;;;;;0.20;0.20;;;25.80;54.30;;;;;;6243831;23;20061;-76
2021/06/07 12:05:14;;;;;;;0.85;0.40;;;25.80;54.10;;;;;;6244791;23;20012;-75
2021/06/07 12:07:44;;;;;;;0.22;0.22;;;25.80;54.10;;;;;;6246027;23;20007;-74
2021/06/07 12:10:15;;;;;;;0.30;0.30;;;25.70;54.30;;;;;;6246387;23;20000;-76
2021/06/07 12:12:42;;;;;;;0.30;0.30;;;25.80;54.50;;;;;;6244048;23;20028;-76
2021/06/07 12:15:14;;;;;;;0.40;0.40;;;25.70;54.30;;;;;;6244258;23;20001;-75
2021/06/07 12:17:42;;;;;;;0.30;0.30;;;25.70;54.30;;;;;;6246377;23;20027;-74
2021/06/07 12:20:09;;;;;;;0.30;0.30;;;25.60;54.10;;;;;;6248136;23;20083;-76
2021/06/07 12:22:39;;;;;;;0.30;0.20;;;25.60;54.10;;;;;;6242445;23;20001;-75
2021/06/07 12:25:25;;;;;;;0.60;0.47;;;25.60;54.10;;;;;;6192322;23;19996;-76
2021/06/07 12:30:48;;;;;;;0.30;0.30;;;25.60;53.80;;;;;;6243873;23;20012;-76
2021/06/07 12:33:24;;;;;;;0.20;0.20;;;25.60;54.00;;;;;;6244036;23;20054;-75
2021/06/07 12:35:52;;;;;;;0.25;0.25;;;25.50;53.90;;;;;;6242404;23;20003;-76
2021/06/07 12:38:19;;;;;;;0.30;0.30;;;25.60;54.00;;;;;;6243708;23;20007;-75
2021/06/07 12:40:47;;;;;;;0.32;0.32;;;25.60;53.90;;;;;;6243993;23;20024;-76
2021/06/07 12:43:17;;;;;;;0.30;0.30;;;25.60;53.90;;;;;;6242009;23;20091;-76
2021/06/07 12:45:47;;;;;;;0.50;0.35;;;25.60;53.80;;;;;;6191374;23;20000;-75
2021/06/07 12:48:15;;;;;;;;;;;25.60;53.70;;;;;;6244288;23;20018;-76
2021/06/07 12:50:43;;;;;;;0.20;0.20;;;25.50;53.70;;;;;;6243893;23;19915;-79
2021/06/07 12:53:10;;;;;;;0.30;0.30;;;25.40;53.70;;;;;;6243822;23;20062;-75
2021/06/07 12:55:38;;;;;;;0.20;0.20;;;25.40;53.70;;;;;;6243578;23;20087;-76
2021/06/07 12:58:11;;;;;;;0.30;0.30;;;25.30;53.60;;;;;;6244018;23;20468;-76